sensor_id;sensor_type;location;lat;lon;timestamp;pressure;altitude;pressure_sealevel;temperature;humidity
45872;BME280;32333;55.844;-3.210;2023-04-30T00:01:49;99993.00;;;9.13;100.00
45872;BME280;32333;55.844;-3.210;2023-04-30T00:04:16;99990.61;;;9.60;100.00
45872;BME280;32333;55.844;-3.210;2023-04-30T00:06:43;99983.12;;;9.87;100.00
45872;BME280;32333;55.844;-3.210;2023-04-30T00:09:12;99980.94;;;10.25;100.00
45872;BME280;32333;55.844;-3.210;2023-04-30T00:11:39;99977.27;;;10.66;100.00
45872;BME280;32333;55.844;-3.210;2023-04-30T00:14:35;99982.07;;;9.11;100.00
45872;BME280;32333;55.844;-3.210;2023-04-30T00:17:02;99975.51;;;10.96;100.00
45872;BME280;32333;55.844;-3.210;2023-04-30T00:19:30;99977.02;;;8.35;100.00
45872;BME280;32333;55.844;-3.210;2023-04-30T00:21:58;99973.03;;;9.95;100.00
45872;BME280;32333;55.844;-3.210;2023-04-30T00:24:25;99969.28;;;10.29;100.00
45872;BME280;32333;55.844;-3.210;2023-04-30T00:26:52;99971.62;;;9.91;100.00
45872;BME280;32333;55.844;-3.210;2023-04-30T00:29:20;99972.91;;;10.66;100.00
45872;BME280;32333;55.844;-3.210;2023-04-30T00:31:47;99973.50;;;10.59;100.00
45872;BME280;32333;55.844;-3.210;2023-04-30T00:34:15;99973.01;;;8.94;100.00
45872;BME280;32333;55.844;-3.210;2023-04-30T00:36:42;99971.82;;;9.02;100.00
45872;BME280;32333;55.844;-3.210;2023-04-30T00:39:09;99969.83;;;9.36;100.00
45872;BME280;32333;55.844;-3.210;2023-04-30T00:41:37;99969.23;;;8.32;100.00
45872;BME280;32333;55.844;-3.210;2023-04-30T00:44:36;99956.78;;;10.06;100.00
45872;BME280;32333;55.844;-3.210;2023-04-30T00:47:03;99953.93;;;10.16;100.00
45872;BME280;32333;55.844;-3.210;2023-04-30T00:49:30;99955.92;;;10.03;100.00
45872;BME280;32333;55.844;-3.210;2023-04-30T00:51:57;99956.23;;;10.00;100.00
45872;BME280;32333;55.844;-3.210;2023-04-30T00:54:25;99954.66;;;10.22;100.00
45872;BME280;32333;55.844;-3.210;2023-04-30T00:56:52;99951.03;;;10.11;100.00
45872;BME280;32333;55.844;-3.210;2023-04-30T00:59:20;99945.57;;;10.37;100.00
45872;BME280;32333;55.844;-3.210;2023-04-30T01:01:48;99948.04;;;8.96;100.00
45872;BME280;32333;55.844;-3.210;2023-04-30T01:04:16;99939.46;;;10.86;100.00
45872;BME280;32333;55.844;-3.210;2023-04-30T01:06:43;99942.44;;;9.40;100.00
45872;BME280;32333;55.844;-3.210;2023-04-30T01:09:12;99938.81;;;9.84;100.00
45872;BME280;32333;55.844;-3.210;2023-04-30T01:11:48;99936.23;;;9.60;100.00
45872;BME280;32333;55.844;-3.210;2023-04-30T01:14:42;99935.42;;;9.70;100.00
45872;BME280;32333;55.844;-3.210;2023-04-30T01:17:17;99941.17;;;8.97;100.00
45872;BME280;32333;55.844;-3.210;2023-04-30T01:19:47;99934.21;;;9.87;100.00
45872;BME280;32333;55.844;-3.210;2023-04-30T01:22:31;99936.82;;;8.80;100.00
45872;BME280;32333;55.844;-3.210;2023-04-30T01:25:13;99932.72;;;8.64;100.00
45872;BME280;32333;55.844;-3.210;2023-04-30T01:28:01;99932.31;;;9.21;100.00
45872;BME280;32333;55.844;-3.210;2023-04-30T01:30:30;99931.55;;;9.43;100.00
45872;BME280;32333;55.844;-3.210;2023-04-30T01:32:58;99933.00;;;8.85;100.00
45872;BME280;32333;55.844;-3.210;2023-04-30T01:36:22;99930.44;;;8.99;100.00
45872;BME280;32333;55.844;-3.210;2023-04-30T01:39:05;99924.25;;;8.06;100.00
45872;BME280;32333;55.844;-3.210;2023-04-30T01:41:39;99920.23;;;8.78;100.00
45872;BME280;32333;55.844;-3.210;2023-04-30T01:44:51;99916.41;;;8.87;100.00
45872;BME280;32333;55.844;-3.210;2023-04-30T01:47:27;99915.21;;;8.96;100.00
45872;BME280;32333;55.844;-3.210;2023-04-30T01:50:07;99916.90;;;7.81;100.00
45872;BME280;32333;55.844;-3.210;2023-04-30T01:52:39;99901.39;;;8.51;100.00
45872;BME280;32333;55.844;-3.210;2023-04-30T01:55:11;99894.15;;;9.15;100.00
45872;BME280;32333;55.844;-3.210;2023-04-30T01:57:42;99892.81;;;8.28;100.00
45872;BME280;32333;55.844;-3.210;2023-04-30T02:00:11;99890.36;;;9.37;100.00
45872;BME280;32333;55.844;-3.210;2023-04-30T02:02:39;99886.94;;;8.41;100.00
45872;BME280;32333;55.844;-3.210;2023-04-30T02:05:07;99879.50;;;8.39;100.00
45872;BME280;32333;55.844;-3.210;2023-04-30T02:07:39;99880.39;;;8.25;100.00
45872;BME280;32333;55.844;-3.210;2023-04-30T02:10:07;99870.53;;;9.14;100.00
45872;BME280;32333;55.844;-3.210;2023-04-30T02:14:36;99874.67;;;8.96;100.00
45872;BME280;32333;55.844;-3.210;2023-04-30T02:17:03;99867.71;;;9.33;100.00
45872;BME280;32333;55.844;-3.210;2023-04-30T02:19:30;99877.12;;;8.42;100.00
45872;BME280;32333;55.844;-3.210;2023-04-30T02:21:59;99870.02;;;9.73;100.00
45872;BME280;32333;55.844;-3.210;2023-04-30T02:24:26;99868.82;;;10.15;100.00
45872;BME280;32333;55.844;-3.210;2023-04-30T02:26:53;99860.00;;;8.74;100.00
45872;BME280;32333;55.844;-3.210;2023-04-30T02:29:21;99860.29;;;9.01;100.00
45872;BME280;32333;55.844;-3.210;2023-04-30T02:31:48;99862.56;;;8.31;100.00
45872;BME280;32333;55.844;-3.210;2023-04-30T02:34:16;99868.81;;;8.53;100.00
45872;BME280;32333;55.844;-3.210;2023-04-30T02:36:43;99862.39;;;9.57;100.00
45872;BME280;32333;55.844;-3.210;2023-04-30T02:39:11;99862.15;;;9.65;100.00
45872;BME280;32333;55.844;-3.210;2023-04-30T02:41:39;99859.24;;;9.44;100.00
45872;BME280;32333;55.844;-3.210;2023-04-30T02:44:36;99858.06;;;9.53;100.00
45872;BME280;32333;55.844;-3.210;2023-04-30T02:47:03;99854.45;;;9.55;100.00
45872;BME280;32333;55.844;-3.210;2023-04-30T02:49:30;99852.55;;;9.29;100.00
45872;BME280;32333;55.844;-3.210;2023-04-30T02:51:59;99850.84;;;9.41;100.00
45872;BME280;32333;55.844;-3.210;2023-04-30T02:54:26;99848.03;;;8.32;100.00
45872;BME280;32333;55.844;-3.210;2023-04-30T02:56:54;99848.07;;;9.76;100.00
45872;BME280;32333;55.844;-3.210;2023-04-30T02:59:23;99850.06;;;10.80;100.00
45872;BME280;32333;55.844;-3.210;2023-04-30T03:01:50;99850.15;;;10.09;100.00
45872;BME280;32333;55.844;-3.210;2023-04-30T03:04:17;99852.43;;;9.03;100.00
45872;BME280;32333;55.844;-3.210;2023-04-30T03:06:45;99852.12;;;9.67;100.00
45872;BME280;32333;55.844;-3.210;2023-04-30T03:09:13;99847.26;;;8.94;100.00
45872;BME280;32333;55.844;-3.210;2023-04-30T03:11:40;99847.25;;;9.00;100.00
45872;BME280;32333;55.844;-3.210;2023-04-30T03:14:36;99843.75;;;9.48;100.00
45872;BME280;32333;55.844;-3.210;2023-04-30T03:17:03;99849.12;;;7.54;100.00
45872;BME280;32333;55.844;-3.210;2023-04-30T03:19:30;99849.00;;;8.69;100.00
45872;BME280;32333;55.844;-3.210;2023-04-30T03:21:59;99838.90;;;9.80;100.00
45872;BME280;32333;55.844;-3.210;2023-04-30T03:24:26;99837.13;;;9.15;100.00
45872;BME280;32333;55.844;-3.210;2023-04-30T03:26:53;99837.80;;;9.99;100.00
45872;BME280;32333;55.844;-3.210;2023-04-30T03:29:20;99835.98;;;10.24;100.00
45872;BME280;32333;55.844;-3.210;2023-04-30T03:31:49;99829.96;;;9.16;100.00
45872;BME280;32333;55.844;-3.210;2023-04-30T03:34:16;99836.15;;;8.10;100.00
45872;BME280;32333;55.844;-3.210;2023-04-30T03:36:43;99833.85;;;7.35;100.00
45872;BME280;32333;55.844;-3.210;2023-04-30T03:39:12;99823.65;;;9.57;100.00
45872;BME280;32333;55.844;-3.210;2023-04-30T03:41:39;99822.54;;;9.60;100.00
45872;BME280;32333;55.844;-3.210;2023-04-30T03:44:35;99826.78;;;8.53;100.00
45872;BME280;32333;55.844;-3.210;2023-04-30T03:47:03;99819.05;;;9.21;100.00
45872;BME280;32333;55.844;-3.210;2023-04-30T03:49:30;99818.69;;;10.09;100.00
45872;BME280;32333;55.844;-3.210;2023-04-30T03:51:58;99815.54;;;9.68;100.00
45872;BME280;32333;55.844;-3.210;2023-04-30T03:54:25;99824.08;;;8.35;100.00
45872;BME280;32333;55.844;-3.210;2023-04-30T03:56:52;99818.92;;;9.06;100.00
45872;BME280;32333;55.844;-3.210;2023-04-30T03:59:21;99810.82;;;9.47;100.00
45872;BME280;32333;55.844;-3.210;2023-04-30T04:01:49;99810.32;;;8.72;100.00
45872;BME280;32333;55.844;-3.210;2023-04-30T04:04:17;99809.41;;;8.99;100.00
45872;BME280;32333;55.844;-3.210;2023-04-30T04:06:44;99818.94;;;8.30;100.00
45872;BME280;32333;55.844;-3.210;2023-04-30T04:09:13;99810.30;;;8.79;100.00
45872;BME280;32333;55.844;-3.210;2023-04-30T04:11:40;99809.25;;;8.96;100.00
45872;BME280;32333;55.844;-3.210;2023-04-30T04:14:35;99809.63;;;9.81;100.00
45872;BME280;32333;55.844;-3.210;2023-04-30T04:17:03;99809.27;;;10.02;100.00
45872;BME280;32333;55.844;-3.210;2023-04-30T04:19:30;99807.38;;;8.38;100.00
45872;BME280;32333;55.844;-3.210;2023-04-30T04:21:58;99807.92;;;8.61;100.00
45872;BME280;32333;55.844;-3.210;2023-04-30T04:24:26;99803.57;;;9.75;100.00
45872;BME280;32333;55.844;-3.210;2023-04-30T04:26:53;99803.63;;;9.95;100.00
45872;BME280;32333;55.844;-3.210;2023-04-30T04:29:20;99800.02;;;9.86;100.00
45872;BME280;32333;55.844;-3.210;2023-04-30T04:31:48;99800.84;;;10.14;100.00
45872;BME280;32333;55.844;-3.210;2023-04-30T04:34:16;99795.29;;;9.89;100.00
45872;BME280;32333;55.844;-3.210;2023-04-30T04:36:43;99796.45;;;9.98;100.00
45872;BME280;32333;55.844;-3.210;2023-04-30T04:39:12;99791.38;;;9.23;100.00
45872;BME280;32333;55.844;-3.210;2023-04-30T04:41:39;99785.34;;;9.43;100.00
45872;BME280;32333;55.844;-3.210;2023-04-30T04:44:35;99782.17;;;10.10;100.00
45872;BME280;32333;55.844;-3.210;2023-04-30T04:47:02;99781.21;;;9.35;100.00
45872;BME280;32333;55.844;-3.210;2023-04-30T04:49:30;99780.25;;;9.19;100.00
45872;BME280;32333;55.844;-3.210;2023-04-30T04:51:57;99779.65;;;8.47;100.00
45872;BME280;32333;55.844;-3.210;2023-04-30T04:54:25;99774.56;;;9.19;100.00
45872;BME280;32333;55.844;-3.210;2023-04-30T04:56:52;99766.81;;;9.38;100.00
45872;BME280;32333;55.844;-3.210;2023-04-30T04:59:19;99769.38;;;8.42;100.00
45872;BME280;32333;55.844;-3.210;2023-04-30T05:01:47;99769.03;;;9.14;100.00
45872;BME280;32333;55.844;-3.210;2023-04-30T05:04:14;99770.61;;;9.49;100.00
45872;BME280;32333;55.844;-3.210;2023-04-30T05:06:42;99765.64;;;9.20;100.00
45872;BME280;32333;55.844;-3.210;2023-04-30T05:09:09;99768.95;;;9.55;100.00
45872;BME280;32333;55.844;-3.210;2023-04-30T05:11:38;99769.62;;;9.24;100.00
45872;BME280;32333;55.844;-3.210;2023-04-30T05:14:35;99771.01;;;8.44;100.00
45872;BME280;32333;55.844;-3.210;2023-04-30T05:17:03;99767.24;;;9.77;100.00
45872;BME280;32333;55.844;-3.210;2023-04-30T05:19:30;99773.07;;;6.75;100.00
45872;BME280;32333;55.844;-3.210;2023-04-30T05:21:59;99767.49;;;7.67;100.00
45872;BME280;32333;55.844;-3.210;2023-04-30T05:24:28;99765.58;;;6.29;100.00
45872;BME280;32333;55.844;-3.210;2023-04-30T05:26:55;99760.74;;;8.08;100.00
45872;BME280;32333;55.844;-3.210;2023-04-30T05:29:23;99762.09;;;8.53;100.00
45872;BME280;32333;55.844;-3.210;2023-04-30T05:31:51;99760.23;;;8.65;100.00
45872;BME280;32333;55.844;-3.210;2023-04-30T05:34:18;99757.78;;;8.60;100.00
45872;BME280;32333;55.844;-3.210;2023-04-30T05:36:46;99755.13;;;8.68;100.00
45872;BME280;32333;55.844;-3.210;2023-04-30T05:39:14;99754.38;;;8.52;100.00
45872;BME280;32333;55.844;-3.210;2023-04-30T05:41:41;99748.76;;;9.50;100.00
45872;BME280;32333;55.844;-3.210;2023-04-30T05:44:36;99748.95;;;10.25;100.00
45872;BME280;32333;55.844;-3.210;2023-04-30T05:47:03;99748.32;;;9.83;100.00
45872;BME280;32333;55.844;-3.210;2023-04-30T05:49:30;99743.87;;;9.59;100.00
45872;BME280;32333;55.844;-3.210;2023-04-30T05:51:59;99747.32;;;9.04;100.00
45872;BME280;32333;55.844;-3.210;2023-04-30T05:54:26;99746.64;;;8.88;100.00
45872;BME280;32333;55.844;-3.210;2023-04-30T05:56:53;99748.47;;;9.89;100.00
45872;BME280;32333;55.844;-3.210;2023-04-30T05:59:21;99756.67;;;7.14;100.00
45872;BME280;32333;55.844;-3.210;2023-04-30T06:01:48;99747.47;;;9.47;100.00
45872;BME280;32333;55.844;-3.210;2023-04-30T06:04:15;99748.34;;;8.50;100.00
45872;BME280;32333;55.844;-3.210;2023-04-30T06:06:43;99749.08;;;9.12;100.00
45872;BME280;32333;55.844;-3.210;2023-04-30T06:09:11;99755.06;;;10.38;100.00
45872;BME280;32333;55.844;-3.210;2023-04-30T06:11:38;99748.76;;;10.58;100.00
45872;BME280;32333;55.844;-3.210;2023-04-30T06:14:36;99751.48;;;8.38;100.00
45872;BME280;32333;55.844;-3.210;2023-04-30T06:17:03;99751.97;;;9.80;100.00
45872;BME280;32333;55.844;-3.210;2023-04-30T06:19:30;99751.33;;;9.96;100.00
45872;BME280;32333;55.844;-3.210;2023-04-30T06:21:59;99747.78;;;9.88;100.00
45872;BME280;32333;55.844;-3.210;2023-04-30T06:24:26;99746.84;;;10.00;100.00
45872;BME280;32333;55.844;-3.210;2023-04-30T06:26:53;99745.46;;;8.21;100.00
45872;BME280;32333;55.844;-3.210;2023-04-30T06:29:21;99745.93;;;9.43;100.00
45872;BME280;32333;55.844;-3.210;2023-04-30T06:31:48;99746.97;;;9.55;100.00
45872;BME280;32333;55.844;-3.210;2023-04-30T06:34:15;99744.24;;;10.81;100.00
45872;BME280;32333;55.844;-3.210;2023-04-30T06:36:43;99745.70;;;10.44;100.00
45872;BME280;32333;55.844;-3.210;2023-04-30T06:39:14;99741.85;;;11.21;100.00
45872;BME280;32333;55.844;-3.210;2023-04-30T06:41:42;99736.11;;;11.21;100.00
45872;BME280;32333;55.844;-3.210;2023-04-30T06:44:35;99726.75;;;10.68;100.00
45872;BME280;32333;55.844;-3.210;2023-04-30T06:47:02;99730.45;;;11.72;100.00
45872;BME280;32333;55.844;-3.210;2023-04-30T06:49:30;99728.05;;;9.62;100.00
45872;BME280;32333;55.844;-3.210;2023-04-30T06:51:57;99720.78;;;10.95;100.00
45872;BME280;32333;55.844;-3.210;2023-04-30T06:54:25;99723.51;;;11.07;100.00
45872;BME280;32333;55.844;-3.210;2023-04-30T06:56:53;99723.06;;;11.58;100.00
45872;BME280;32333;55.844;-3.210;2023-04-30T06:59:20;99721.89;;;11.43;100.00
45872;BME280;32333;55.844;-3.210;2023-04-30T07:01:48;99718.14;;;10.09;100.00
45872;BME280;32333;55.844;-3.210;2023-04-30T07:04:16;99718.63;;;11.33;100.00
45872;BME280;32333;55.844;-3.210;2023-04-30T07:06:43;99718.43;;;12.56;100.00
45872;BME280;32333;55.844;-3.210;2023-04-30T07:09:10;99715.90;;;11.22;100.00
45872;BME280;32333;55.844;-3.210;2023-04-30T07:11:38;99723.20;;;11.69;100.00
45872;BME280;32333;55.844;-3.210;2023-04-30T07:14:36;99722.03;;;11.79;100.00
45872;BME280;32333;55.844;-3.210;2023-04-30T07:17:03;99720.11;;;11.42;100.00
45872;BME280;32333;55.844;-3.210;2023-04-30T07:19:30;99720.41;;;11.48;100.00
45872;BME280;32333;55.844;-3.210;2023-04-30T07:22:00;99720.18;;;10.85;100.00
45872;BME280;32333;55.844;-3.210;2023-04-30T07:24:27;99725.26;;;11.30;100.00
45872;BME280;32333;55.844;-3.210;2023-04-30T07:26:54;99718.98;;;10.72;100.00
45872;BME280;32333;55.844;-3.210;2023-04-30T07:29:23;99716.98;;;9.40;100.00
45872;BME280;32333;55.844;-3.210;2023-04-30T07:31:50;99712.10;;;10.79;100.00
45872;BME280;32333;55.844;-3.210;2023-04-30T07:34:17;99711.30;;;12.30;100.00
45872;BME280;32333;55.844;-3.210;2023-04-30T07:36:45;99710.38;;;12.12;100.00
45872;BME280;32333;55.844;-3.210;2023-04-30T07:39:12;99707.03;;;12.22;100.00
45872;BME280;32333;55.844;-3.210;2023-04-30T07:41:39;99703.34;;;11.61;100.00
45872;BME280;32333;55.844;-3.210;2023-04-30T07:44:36;99698.04;;;11.70;100.00
45872;BME280;32333;55.844;-3.210;2023-04-30T07:47:04;99694.43;;;11.58;100.00
45872;BME280;32333;55.844;-3.210;2023-04-30T07:49:31;99685.13;;;12.51;100.00
45872;BME280;32333;55.844;-3.210;2023-04-30T07:51:59;99676.56;;;12.81;100.00
45872;BME280;32333;55.844;-3.210;2023-04-30T07:54:27;99674.93;;;12.79;100.00
45872;BME280;32333;55.844;-3.210;2023-04-30T07:56:54;99686.84;;;12.35;100.00
45872;BME280;32333;55.844;-3.210;2023-04-30T07:59:23;99686.15;;;11.62;100.00
45872;BME280;32333;55.844;-3.210;2023-04-30T08:01:50;99686.00;;;10.49;100.00
45872;BME280;32333;55.844;-3.210;2023-04-30T08:04:17;99686.08;;;9.93;100.00
45872;BME280;32333;55.844;-3.210;2023-04-30T08:06:44;99683.15;;;11.06;100.00
45872;BME280;32333;55.844;-3.210;2023-04-30T08:09:12;99688.76;;;10.03;100.00
45872;BME280;32333;55.844;-3.210;2023-04-30T08:11:40;99685.42;;;9.70;100.00
45872;BME280;32333;55.844;-3.210;2023-04-30T08:14:36;99678.06;;;10.68;100.00
45872;BME280;32333;55.844;-3.210;2023-04-30T08:17:03;99675.19;;;9.94;100.00
45872;BME280;32333;55.844;-3.210;2023-04-30T08:19:30;99673.25;;;10.17;100.00
45872;BME280;32333;55.844;-3.210;2023-04-30T08:21:58;99672.40;;;10.44;100.00
45872;BME280;32333;55.844;-3.210;2023-04-30T08:24:26;99670.96;;;10.54;100.00
45872;BME280;32333;55.844;-3.210;2023-04-30T08:26:54;99673.05;;;10.55;100.00
45872;BME280;32333;55.844;-3.210;2023-04-30T08:29:21;99665.41;;;10.79;100.00
45872;BME280;32333;55.844;-3.210;2023-04-30T08:31:48;99672.96;;;11.46;100.00
45872;BME280;32333;55.844;-3.210;2023-04-30T08:34:16;99674.42;;;10.45;100.00
45872;BME280;32333;55.844;-3.210;2023-04-30T08:36:44;99685.17;;;11.55;100.00
45872;BME280;32333;55.844;-3.210;2023-04-30T08:39:12;99683.76;;;11.36;100.00
45872;BME280;32333;55.844;-3.210;2023-04-30T08:41:41;99682.09;;;11.41;100.00
45872;BME280;32333;55.844;-3.210;2023-04-30T08:44:36;99678.00;;;11.08;100.00
45872;BME280;32333;55.844;-3.210;2023-04-30T08:47:06;99670.73;;;10.67;100.00
45872;BME280;32333;55.844;-3.210;2023-04-30T08:49:35;99670.99;;;11.67;100.00
45872;BME280;32333;55.844;-3.210;2023-04-30T08:52:03;99668.11;;;12.10;100.00
45872;BME280;32333;55.844;-3.210;2023-04-30T08:54:31;99665.25;;;12.35;100.00
45872;BME280;32333;55.844;-3.210;2023-04-30T08:56:59;99667.23;;;12.50;100.00
45872;BME280;32333;55.844;-3.210;2023-04-30T08:59:26;99671.84;;;12.13;100.00
45872;BME280;32333;55.844;-3.210;2023-04-30T09:01:53;99663.00;;;11.87;100.00
45872;BME280;32333;55.844;-3.210;2023-04-30T09:04:22;99666.26;;;12.00;100.00
45872;BME280;32333;55.844;-3.210;2023-04-30T09:06:51;99671.69;;;11.63;100.00
45872;BME280;32333;55.844;-3.210;2023-04-30T09:09:19;99659.83;;;10.36;100.00
45872;BME280;32333;55.844;-3.210;2023-04-30T09:11:46;99661.22;;;11.39;100.00
45872;BME280;32333;55.844;-3.210;2023-04-30T09:14:35;99653.95;;;10.75;100.00
45872;BME280;32333;55.844;-3.210;2023-04-30T09:17:03;99652.97;;;9.88;100.00
45872;BME280;32333;55.844;-3.210;2023-04-30T09:19:30;99652.16;;;11.02;100.00
45872;BME280;32333;55.844;-3.210;2023-04-30T09:22:18;99648.09;;;10.93;100.00
45872;BME280;32333;55.844;-3.210;2023-04-30T09:24:46;99647.24;;;11.54;100.00
45872;BME280;32333;55.844;-3.210;2023-04-30T09:27:16;99640.74;;;11.70;100.00
45872;BME280;32333;55.844;-3.210;2023-04-30T09:29:44;99640.66;;;10.72;100.00
45872;BME280;32333;55.844;-3.210;2023-04-30T09:32:11;99638.20;;;11.69;100.00
45872;BME280;32333;55.844;-3.210;2023-04-30T09:34:40;99634.40;;;11.63;100.00
45872;BME280;32333;55.844;-3.210;2023-04-30T09:37:07;99627.80;;;10.99;100.00
45872;BME280;32333;55.844;-3.210;2023-04-30T09:39:46;99627.11;;;12.38;100.00
45872;BME280;32333;55.844;-3.210;2023-04-30T09:44:37;99621.85;;;11.64;100.00
45872;BME280;32333;55.844;-3.210;2023-04-30T09:47:09;99625.63;;;11.08;100.00
45872;BME280;32333;55.844;-3.210;2023-04-30T09:49:37;99624.62;;;10.60;100.00
45872;BME280;32333;55.844;-3.210;2023-04-30T09:52:08;99623.97;;;10.14;100.00
45872;BME280;32333;55.844;-3.210;2023-04-30T09:54:37;99622.33;;;10.38;100.00
45872;BME280;32333;55.844;-3.210;2023-04-30T09:57:09;99619.15;;;10.29;100.00
45872;BME280;32333;55.844;-3.210;2023-04-30T09:59:36;99622.01;;;11.30;100.00
45872;BME280;32333;55.844;-3.210;2023-04-30T10:02:05;99622.92;;;11.43;100.00
45872;BME280;32333;55.844;-3.210;2023-04-30T10:04:34;99620.98;;;11.20;100.00
45872;BME280;32333;55.844;-3.210;2023-04-30T10:07:07;99625.44;;;9.67;100.00
45872;BME280;32333;55.844;-3.210;2023-04-30T10:09:38;99622.80;;;10.94;100.00
45872;BME280;32333;55.844;-3.210;2023-04-30T10:14:36;99623.11;;;11.06;100.00
45872;BME280;32333;55.844;-3.210;2023-04-30T10:17:10;99618.88;;;10.43;100.00
45872;BME280;32333;55.844;-3.210;2023-04-30T10:19:45;99623.72;;;10.01;100.00
45872;BME280;32333;55.844;-3.210;2023-04-30T10:22:14;99621.33;;;9.65;100.00
45872;BME280;32333;55.844;-3.210;2023-04-30T10:24:43;99625.29;;;10.15;100.00
45872;BME280;32333;55.844;-3.210;2023-04-30T10:27:11;99625.07;;;10.20;100.00
45872;BME280;32333;55.844;-3.210;2023-04-30T10:29:38;99624.24;;;10.66;100.00
45872;BME280;32333;55.844;-3.210;2023-04-30T10:32:07;99617.00;;;10.74;100.00
45872;BME280;32333;55.844;-3.210;2023-04-30T10:34:44;99619.94;;;11.21;100.00
45872;BME280;32333;55.844;-3.210;2023-04-30T10:37:23;99616.40;;;11.10;100.00
45872;BME280;32333;55.844;-3.210;2023-04-30T10:39:55;99613.91;;;11.05;100.00
45872;BME280;32333;55.844;-3.210;2023-04-30T10:44:36;99609.84;;;11.48;100.00
45872;BME280;32333;55.844;-3.210;2023-04-30T10:47:05;99611.21;;;11.70;100.00
45872;BME280;32333;55.844;-3.210;2023-04-30T10:49:34;99604.27;;;11.62;100.00
45872;BME280;32333;55.844;-3.210;2023-04-30T10:52:03;99606.58;;;11.28;100.00
45872;BME280;32333;55.844;-3.210;2023-04-30T10:54:33;99602.34;;;10.54;100.00
45872;BME280;32333;55.844;-3.210;2023-04-30T10:57:30;99598.54;;;10.80;100.00
45872;BME280;32333;55.844;-3.210;2023-04-30T11:00:18;99598.13;;;11.48;100.00
45872;BME280;32333;55.844;-3.210;2023-04-30T11:02:48;99593.70;;;11.25;100.00
45872;BME280;32333;55.844;-3.210;2023-04-30T11:05:33;99591.88;;;11.77;100.00
45872;BME280;32333;55.844;-3.210;2023-04-30T11:08:04;99592.10;;;11.26;100.00
45872;BME280;32333;55.844;-3.210;2023-04-30T11:10:34;99591.05;;;11.40;100.00
45872;BME280;32333;55.844;-3.210;2023-04-30T11:14:39;99592.81;;;11.86;100.00
45872;BME280;32333;55.844;-3.210;2023-04-30T11:17:13;99592.84;;;11.71;100.00
45872;BME280;32333;55.844;-3.210;2023-04-30T11:19:50;99586.08;;;12.36;100.00
45872;BME280;32333;55.844;-3.210;2023-04-30T11:22:41;99589.12;;;11.06;100.00
45872;BME280;32333;55.844;-3.210;2023-04-30T11:25:09;99584.09;;;11.85;100.00
45872;BME280;32333;55.844;-3.210;2023-04-30T11:27:40;99579.70;;;11.78;100.00
45872;BME280;32333;55.844;-3.210;2023-04-30T11:30:12;99582.08;;;11.34;100.00
45872;BME280;32333;55.844;-3.210;2023-04-30T11:32:41;99572.64;;;12.17;100.00
45872;BME280;32333;55.844;-3.210;2023-04-30T11:35:10;99570.62;;;12.11;100.00
45872;BME280;32333;55.844;-3.210;2023-04-30T11:37:41;99569.89;;;13.05;100.00
45872;BME280;32333;55.844;-3.210;2023-04-30T11:40:11;99564.15;;;12.42;100.00
45872;BME280;32333;55.844;-3.210;2023-04-30T11:44:35;99557.41;;;12.28;100.00
45872;BME280;32333;55.844;-3.210;2023-04-30T11:47:08;99557.18;;;11.68;100.00
45872;BME280;32333;55.844;-3.210;2023-04-30T12:14:36;99524.39;;;12.13;100.00
45872;BME280;32333;55.844;-3.210;2023-04-30T12:17:04;99523.93;;;12.21;100.00
45872;BME280;32333;55.844;-3.210;2023-04-30T12:19:33;99522.79;;;11.70;100.00
45872;BME280;32333;55.844;-3.210;2023-04-30T12:22:02;99519.43;;;12.99;100.00
45872;BME280;32333;55.844;-3.210;2023-04-30T12:24:33;99513.08;;;11.89;100.00
45872;BME280;32333;55.844;-3.210;2023-04-30T12:27:08;99509.53;;;12.10;100.00
45872;BME280;32333;55.844;-3.210;2023-04-30T12:30:44;99511.35;;;11.38;100.00
45872;BME280;32333;55.844;-3.210;2023-04-30T12:35:15;99506.70;;;13.21;100.00
45872;BME280;32333;55.844;-3.210;2023-04-30T12:37:49;99505.60;;;13.02;100.00
45872;BME280;32333;55.844;-3.210;2023-04-30T12:40:20;99502.86;;;13.40;100.00
45872;BME280;32333;55.844;-3.210;2023-04-30T12:44:47;99498.87;;;12.88;100.00
45872;BME280;32333;55.844;-3.210;2023-04-30T12:47:16;99495.18;;;13.10;100.00
45872;BME280;32333;55.844;-3.210;2023-04-30T12:49:45;99493.94;;;13.57;100.00
45872;BME280;32333;55.844;-3.210;2023-04-30T12:52:13;99489.94;;;12.70;100.00
45872;BME280;32333;55.844;-3.210;2023-04-30T12:54:42;99488.33;;;13.21;100.00
45872;BME280;32333;55.844;-3.210;2023-04-30T12:57:23;99481.34;;;13.32;100.00
45872;BME280;32333;55.844;-3.210;2023-04-30T13:01:16;99481.71;;;12.75;100.00
45872;BME280;32333;55.844;-3.210;2023-04-30T13:03:44;99480.92;;;13.28;100.00
45872;BME280;32333;55.844;-3.210;2023-04-30T13:17:17;99473.82;;;11.74;100.00
45872;BME280;32333;55.844;-3.210;2023-04-30T13:20:23;99469.72;;;12.84;100.00
45872;BME280;32333;55.844;-3.210;2023-04-30T13:22:53;99466.90;;;12.75;100.00
45872;BME280;32333;55.844;-3.210;2023-04-30T13:25:23;99464.20;;;12.29;100.00
45872;BME280;32333;55.844;-3.210;2023-04-30T13:27:52;99464.95;;;12.75;100.00
45872;BME280;32333;55.844;-3.210;2023-04-30T13:30:22;99461.09;;;13.68;100.00
45872;BME280;32333;55.844;-3.210;2023-04-30T13:32:50;99460.84;;;13.86;100.00
45872;BME280;32333;55.844;-3.210;2023-04-30T13:39:12;99466.48;;;12.46;100.00
45872;BME280;32333;55.844;-3.210;2023-04-30T13:41:40;99461.51;;;13.01;100.00
45872;BME280;32333;55.844;-3.210;2023-04-30T13:44:43;99451.38;;;12.83;100.00
45872;BME280;32333;55.844;-3.210;2023-04-30T13:47:10;99445.13;;;12.40;100.00
45872;BME280;32333;55.844;-3.210;2023-04-30T13:49:38;99443.40;;;12.86;100.00
45872;BME280;32333;55.844;-3.210;2023-04-30T13:52:12;99447.46;;;12.97;100.00
45872;BME280;32333;55.844;-3.210;2023-04-30T13:54:41;99443.92;;;12.34;100.00
45872;BME280;32333;55.844;-3.210;2023-04-30T13:57:29;99443.37;;;13.10;100.00
45872;BME280;32333;55.844;-3.210;2023-04-30T13:59:59;99441.52;;;12.36;100.00
45872;BME280;32333;55.844;-3.210;2023-04-30T14:02:28;99443.20;;;12.48;100.00
45872;BME280;32333;55.844;-3.210;2023-04-30T14:04:56;99444.40;;;11.92;100.00